Aldine, TX

10:07 PM CST on January 31, 2015 (GMT -0600)
Beverly Place | Change Station
CLOSE
Current Station
Personal Weather Station
Location: Houston, TX
Elevation: 60 ft
Nearby Weather Stations

Elev 60 ft 29.83 °N, 95.36 °W | Updated 1 minute ago

Overcast
Overcast
60.8 °F
Feels Like 60.8 °F
N
7.0
Wind Variable Wind from SE
Gusts 9.0 mph

Today
High -- | Low -- °F
--% Chance of Precip.
Yesterday
High -- | Low -- °F
Precip. -- in
7:12 AM 5:57 PM
Waxing Gibbous, 93% visible
Pressure 30.03 in
Visibility 9.0 miles
Clouds Overcast 900 ft
Dew Point 58 °F
Humidity 91%
Rainfall 0.00 in
Snow Depth Not available.
UV 0 out of 12
Pollen 8.30 out of 12
Air Quality Not available.
Flu Activity Not available.
METAR KIAH 010353Z 12006KT 9SM OVC009 15/13 A3003 RMK AO2 SLP168 T01500133

More Conditions Fewer Conditions

Pressure 30.03 in
Visibility 9.0 miles
Clouds Overcast 900 ft
Dew Point 58 °F
Humidity 91%
Rainfall 0.00 in
Snow Depth Not available.
UV 0 out of 12
Pollen 8.30 out of 12
Air Quality Not available.
Flu Activity Not available.
METAR KIAH 010353Z 12006KT 9SM OVC009 15/13 A3003 RMK AO2 SLP168 T01500133

More Conditions Fewer Conditions

10-Day Weather Forecast

Almanac

Astronomy

Jan. 31, 2015 Rise Set
Actual Time
Civil Twilight
Nautical Twilight
Astronomical Twilight
Moon
Length of Visible Light
Length of Day
Tomorrow will be .
, % of the Moon is Illuminated

Today's Extremes

State Highs State Lows

Community

WunderPhotos

Upload Photos

1,792,300 photos uploaded!

WunderBlogs® & News

Nearby

Air Quality

  Air Quality AQ Index Pollutant
Not available.

Snow Depth

Station Depth Elevation

Earthquake Activity

City Distance Mag. Time & Date
Minimum magnitude displayed is 2.5.

Coastal Water Temperatures

Place Temperature

Nearby Weather Stations